Time,TemperatureF,DewpointF,PressureIn,WindDirection,WindDirectionDegrees,WindSpeedMPH,WindSpeedGustMPH,Humidity,HourlyPrecipIn,Conditions,Clouds,dailyrainin,SoftwareType,DateUTC
2013-02-03 00:01:00,14.0,11.0,-100.00,South,181,0.0,2.0,88,0.00,,,-99.99,,2013-02-03 07:01:00,
2013-02-03 00:11:00,13.0,10.0,-100.00,SSW,196,1.0,2.0,88,0.00,,,-99.99,,2013-02-03 07:11:00,
2013-02-03 00:21:00,12.0,9.0,-100.00,West,274,1.0,2.0,87,0.00,,,-99.99,,2013-02-03 07:21:00,
2013-02-03 00:31:00,12.0,9.0,-100.00,West,274,1.0,2.0,87,0.00,,,-99.99,,2013-02-03 07:31:00,
2013-02-03 00:42:00,11.0,8.0,-100.00,SE,130,0.0,1.0,87,0.00,,,-99.99,,2013-02-03 07:42:00,
2013-02-03 00:52:00,11.0,8.0,-100.00,SE,130,0.0,1.0,87,0.00,,,-99.99,,2013-02-03 07:52:00,
2013-02-03 01:01:00,11.0,8.0,-100.00,SE,130,0.0,1.0,87,0.00,,,-99.99,,2013-02-03 08:01:00,
2013-02-03 01:11:00,11.0,8.0,-100.00,South,185,2.0,3.0,87,0.00,,,-99.99,,2013-02-03 08:11:00,
2013-02-03 01:22:00,10.0,7.0,-100.00,South,178,1.0,2.0,87,0.00,,,-99.99,,2013-02-03 08:22:00,
2013-02-03 01:32:00,10.0,7.0,-100.00,South,178,1.0,2.0,87,0.00,,,-99.99,,2013-02-03 08:32:00,
2013-02-03 01:41:00,10.0,7.0,-100.00,SSE,152,2.0,2.0,86,0.00,,,-99.99,,2013-02-03 08:41:00,
2013-02-03 01:52:00,10.0,7.0,-100.00,SSE,152,2.0,2.0,86,0.00,,,-99.99,,2013-02-03 08:52:00,
2013-02-03 02:02:00,10.0,7.0,-100.00,SSE,152,2.0,2.0,86,0.00,,,-99.99,,2013-02-03 09:02:00,
2013-02-03 02:11:00,9.0,5.0,-100.00,SW,234,2.0,3.0,86,0.00,,,-99.99,,2013-02-03 09:11:00,
2013-02-03 02:21:00,9.0,5.0,-100.00,SW,234,2.0,3.0,86,0.00,,,-99.99,,2013-02-03 09:21:00,
2013-02-03 02:41:00,9.0,6.0,-100.00,North,6,0.0,0.0,86,0.00,,,-99.99,,2013-02-03 09:41:00,
2013-02-03 02:52:00,10.0,6.0,-100.00,NE,51,0.0,0.0,86,0.00,,,-99.99,,2013-02-03 09:52:00,
2013-02-03 03:01:00,10.0,6.0,-100.00,NE,51,0.0,0.0,86,0.00,,,-99.99,,2013-02-03 10:01:00,
2013-02-03 03:21:00,9.0,5.0,-100.00,SSW,212,0.0,0.0,85,0.00,,,-99.99,,2013-02-03 10:21:00,
2013-02-03 03:41:00,9.0,6.0,-100.00,SSW,192,0.0,0.0,86,0.00,,,-99.99,,2013-02-03 10:41:00,
2013-02-03 03:52:00,9.0,5.0,-100.00,South,186,2.0,2.0,85,0.00,,,-99.99,,2013-02-03 10:52:00,
2013-02-03 04:02:00,9.0,5.0,-100.00,South,186,2.0,2.0,85,0.00,,,-99.99,,2013-02-03 11:02:00,
2013-02-03 04:11:00,9.0,5.0,-100.00,SSW,212,0.0,0.0,85,0.00,,,-99.99,,2013-02-03 11:11:00,
2013-02-03 04:22:00,9.0,5.0,-100.00,SSW,212,0.0,0.0,85,0.00,,,-99.99,,2013-02-03 11:22:00,
2013-02-03 04:41:00,9.0,5.0,-100.00,SSW,203,0.0,0.0,85,0.00,,,-99.99,,2013-02-03 11:41:00,
2013-02-03 04:52:00,9.0,5.0,-100.00,East,100,0.0,1.0,85,0.00,,,-99.99,,2013-02-03 11:52:00,
2013-02-03 05:02:00,9.0,5.0,-100.00,East,100,0.0,1.0,85,0.00,,,-99.99,,2013-02-03 12:02:00,
2013-02-03 05:11:00,9.0,6.0,-100.00,SSE,155,2.0,3.0,86,0.00,,,-99.99,,2013-02-03 12:11:00,
2013-02-03 05:22:00,9.0,6.0,-100.00,SSE,155,2.0,3.0,86,0.00,,,-99.99,,2013-02-03 12:22:00,
2013-02-03 05:42:00,9.0,6.0,-100.00,SSE,155,0.0,1.0,86,0.00,,,-99.99,,2013-02-03 12:42:00,
2013-02-03 05:53:00,9.0,6.0,-100.00,SSE,155,0.0,1.0,86,0.00,,,-99.99,,2013-02-03 12:53:00,
2013-02-03 06:03:00,9.0,6.0,-100.00,SSE,155,0.0,1.0,86,0.00,,,-99.99,,2013-02-03 13:03:00,
2013-02-03 06:11:00,9.0,5.0,-100.00,SSW,205,1.0,1.0,85,0.00,,,-99.99,,2013-02-03 13:11:00,
2013-02-03 06:21:00,9.0,6.0,-100.00,East,97,1.0,2.0,86,0.00,,,-99.99,,2013-02-03 13:21:00,
2013-02-03 06:32:00,9.0,6.0,-100.00,East,97,1.0,2.0,86,0.00,,,-99.99,,2013-02-03 13:32:00,
2013-02-03 06:42:00,9.0,6.0,-100.00,SSE,151,2.0,2.0,86,0.00,,,-99.99,,2013-02-03 13:42:00,
2013-02-03 06:52:00,9.0,6.0,-100.00,SSE,151,2.0,2.0,86,0.00,,,-99.99,,2013-02-03 13:52:00,
2013-02-03 07:02:00,9.0,6.0,-100.00,SSE,151,2.0,2.0,86,0.00,,,-99.99,,2013-02-03 14:02:00,
2013-02-03 07:11:00,9.0,5.0,-100.00,SSE,162,2.0,2.0,86,0.00,,,-99.99,,2013-02-03 14:11:00,
2013-02-03 07:21:00,9.0,5.0,-100.00,SSE,162,2.0,2.0,86,0.00,,,-99.99,,2013-02-03 14:21:00,
2013-02-03 07:42:00,8.0,5.0,-100.00,ESE,103,1.0,2.0,85,0.00,,,-99.99,,2013-02-03 14:42:00,
2013-02-03 07:52:00,9.0,5.0,-100.00,SE,126,2.0,3.0,86,0.00,,,-99.99,,2013-02-03 14:52:00,
2013-02-03 08:03:00,9.0,5.0,-100.00,SE,126,2.0,3.0,86,0.00,,,-99.99,,2013-02-03 15:03:00,
2013-02-03 08:22:00,9.0,6.0,-100.00,South,169,1.0,2.0,86,0.00,,,-99.99,,2013-02-03 15:22:00,
2013-02-03 08:32:00,9.0,6.0,-100.00,South,169,1.0,2.0,86,0.00,,,-99.99,,2013-02-03 15:32:00,
2013-02-03 09:02:00,10.0,7.0,-100.00,South,184,1.0,1.0,86,0.00,,,-99.99,,2013-02-03 16:02:00,
2013-02-03 09:21:00,11.0,8.0,-100.00,SW,224,0.0,0.0,87,0.00,,,-99.99,,2013-02-03 16:21:00,
2013-02-03 09:32:00,12.0,8.0,-100.00,SW,229,0.0,1.0,86,0.00,,,-99.99,,2013-02-03 16:32:00,
2013-02-03 09:41:00,12.0,8.0,-100.00,SW,229,0.0,1.0,86,0.00,,,-99.99,,2013-02-03 16:41:00,
2013-02-03 09:52:00,12.0,9.0,-100.00,NNW,342,0.0,1.0,87,0.00,,,-99.99,,2013-02-03 16:52:00,
2013-02-03 10:02:00,12.0,8.0,-100.00,NW,322,1.0,2.0,86,0.00,,,-99.99,,2013-02-03 17:02:00,
2013-02-03 10:31:00,13.0,9.0,-100.00,SW,220,1.0,2.0,86,0.00,,,-99.99,,2013-02-03 17:31:00,
2013-02-03 10:42:00,13.0,9.0,-100.00,SW,220,1.0,2.0,86,0.00,,,-99.99,,2013-02-03 17:42:00,
2013-02-03 10:52:00,13.0,10.0,-100.00,South,176,2.0,3.0,87,0.00,,,-99.99,,2013-02-03 17:52:00,
2013-02-03 11:02:00,13.0,10.0,-100.00,South,176,2.0,3.0,87,0.00,,,-99.99,,2013-02-03 18:02:00,
2013-02-03 12:00:00,18.0,16.0,-100.00,NNE,27,2.0,3.0,89,0.00,,,-99.99,,2013-02-03 19:00:00,
2013-02-03 12:22:00,19.0,16.0,-100.00,West,261,0.0,1.0,90,0.00,,,-99.99,,2013-02-03 19:22:00,
2013-02-03 12:32:00,19.0,16.0,-100.00,West,261,0.0,1.0,90,0.00,,,-99.99,,2013-02-03 19:32:00,
2013-02-03 12:41:00,19.0,16.0,-100.00,West,261,0.0,1.0,90,0.00,,,-99.99,,2013-02-03 19:41:00,
2013-02-03 12:52:00,18.0,16.0,-100.00,NNE,27,2.0,3.0,89,0.00,,,-99.99,,2013-02-03 19:52:00,
2013-02-03 13:21:00,22.0,19.0,-100.00,WSW,247,2.0,3.0,90,0.00,,,-99.99,,2013-02-03 20:21:00,
2013-02-03 13:32:00,22.0,19.0,-100.00,WSW,247,2.0,3.0,90,0.00,,,-99.99,,2013-02-03 20:32:00,
2013-02-03 13:42:00,22.0,19.0,-100.00,WSW,247,2.0,3.0,90,0.00,,,-99.99,,2013-02-03 20:42:00,
2013-02-03 14:11:00,24.0,22.0,-100.00,SSE,167,4.0,5.0,91,0.00,,,-99.99,,2013-02-03 21:11:00,
2013-02-03 14:21:00,25.0,22.0,-100.00,SE,127,5.0,6.0,91,0.00,,,-99.99,,2013-02-03 21:21:00,
2013-02-03 14:32:00,25.0,22.0,-100.00,SE,127,5.0,6.0,91,0.00,,,-99.99,,2013-02-03 21:32:00,
2013-02-03 14:42:00,25.0,22.0,-100.00,SE,127,5.0,6.0,91,0.00,,,-99.99,,2013-02-03 21:42:00,
2013-02-03 14:52:00,30.0,26.0,-100.00,WNW,284,0.0,1.0,84,0.00,,,-99.99,,2013-02-03 21:52:00,
2013-02-03 15:01:00,30.0,26.0,-100.00,WNW,284,0.0,1.0,84,0.00,,,-99.99,,2013-02-03 22:01:00,
2013-02-03 15:11:00,29.0,22.0,-100.00,ESE,107,2.0,5.0,74,0.00,,,-99.99,,2013-02-03 22:11:00,
2013-02-03 15:21:00,30.0,21.0,-100.00,SE,143,2.0,4.0,68,0.00,,,-99.99,,2013-02-03 22:21:00,
2013-02-03 15:30:00,31.0,21.0,-100.00,SSW,202,3.0,4.0,68,0.00,,,-99.99,,2013-02-03 22:30:00,
2013-02-03 15:32:00,30.0,21.0,-100.00,SE,143,2.0,4.0,68,0.00,,,-99.99,,2013-02-03 22:32:00,
2013-02-03 15:41:00,30.0,21.0,-100.00,SSW,203,4.0,6.0,69,0.00,,,-99.99,,2013-02-03 22:41:00,
2013-02-03 15:52:00,31.0,21.0,-100.00,South,186,2.0,4.0,68,0.00,,,-99.99,,2013-02-03 22:52:00,
2013-02-03 16:01:00,31.0,21.0,-100.00,South,186,2.0,4.0,68,0.00,,,-99.99,,2013-02-03 23:01:00,
2013-02-03 16:11:00,31.0,21.0,-100.00,SSW,202,3.0,4.0,68,0.00,,,-99.99,,2013-02-03 23:11:00,
2013-02-03 16:22:00,31.0,21.0,-100.00,SSW,202,3.0,4.0,68,0.00,,,-99.99,,2013-02-03 23:22:00,
2013-02-03 17:00:00,30.0,21.0,-100.00,SSE,157,2.0,3.0,67,0.00,,,-99.99,,2013-02-04 00:00:00,
2013-02-03 17:22:00,32.0,21.0,-100.00,SE,128,2.0,3.0,63,0.00,,,-99.99,,2013-02-04 00:22:00,
2013-02-03 17:31:00,32.0,21.0,-100.00,SE,128,2.0,3.0,63,0.00,,,-99.99,,2013-02-04 00:31:00,
2013-02-03 17:41:00,30.0,21.0,-100.00,SSE,157,2.0,3.0,67,0.00,,,-99.99,,2013-02-04 00:41:00,
2013-02-03 17:52:00,30.0,21.0,-100.00,SSE,157,2.0,3.0,67,0.00,,,-99.99,,2013-02-04 00:52:00,
2013-02-03 18:11:00,26.0,19.0,-100.00,South,184,5.0,6.0,78,0.00,,,-99.99,,2013-02-04 01:11:00,
2013-02-03 18:21:00,24.0,19.0,-100.00,SSW,195,6.0,6.0,80,0.00,,,-99.99,,2013-02-04 01:21:00,
2013-02-03 18:31:00,24.0,19.0,-100.00,SSW,195,6.0,6.0,80,0.00,,,-99.99,,2013-02-04 01:31:00,
2013-02-03 18:41:00,24.0,19.0,-100.00,SSW,195,6.0,6.0,80,0.00,,,-99.99,,2013-02-04 01:41:00,
2013-02-03 18:52:00,23.0,18.0,-100.00,SSE,157,4.0,5.0,82,0.00,,,-99.99,,2013-02-04 01:52:00,
2013-02-03 19:01:00,23.0,18.0,-100.00,SSE,157,4.0,5.0,82,0.00,,,-99.99,,2013-02-04 02:01:00,
2013-02-03 19:11:00,22.0,17.0,-100.00,South,184,2.0,3.0,82,0.00,,,-99.99,,2013-02-04 02:11:00,
2013-02-03 19:21:00,21.0,17.0,-100.00,SSW,208,0.0,2.0,83,0.00,,,-99.99,,2013-02-04 02:21:00,
2013-02-03 19:31:00,21.0,17.0,-100.00,SSW,208,0.0,2.0,83,0.00,,,-99.99,,2013-02-04 02:31:00,
2013-02-03 19:41:00,21.0,17.0,-100.00,SSW,208,0.0,2.0,83,0.00,,,-99.99,,2013-02-04 02:41:00,
2013-02-03 19:52:00,18.0,15.0,-100.00,South,186,1.0,2.0,88,0.00,,,-99.99,,2013-02-04 02:52:00,
2013-02-03 20:00:00,18.0,15.0,-100.00,South,184,4.0,5.0,87,0.00,,,-99.99,,2013-02-04 03:00:00,
2013-02-03 20:02:00,18.0,15.0,-100.00,South,186,1.0,2.0,88,0.00,,,-99.99,,2013-02-04 03:02:00,
2013-02-03 20:11:00,18.0,15.0,-100.00,South,186,1.0,2.0,88,0.00,,,-99.99,,2013-02-04 03:11:00,
2013-02-03 20:21:00,18.0,16.0,-100.00,SSE,158,6.0,6.0,90,0.00,,,-99.99,,2013-02-04 03:21:00,
2013-02-03 20:32:00,18.0,16.0,-100.00,SSE,158,6.0,6.0,90,0.00,,,-99.99,,2013-02-04 03:32:00,
2013-02-03 20:41:00,18.0,15.0,-100.00,South,184,4.0,5.0,87,0.00,,,-99.99,,2013-02-04 03:41:00,
2013-02-03 20:52:00,18.0,15.0,-100.00,South,184,4.0,5.0,87,0.00,,,-99.99,,2013-02-04 03:52:00,
2013-02-03 21:21:00,15.0,12.0,-100.00,West,278,0.0,1.0,90,0.00,,,-99.99,,2013-02-04 04:21:00,
2013-02-03 21:31:00,15.0,12.0,-100.00,West,278,0.0,1.0,90,0.00,,,-99.99,,2013-02-04 04:31:00,
2013-02-03 21:41:00,15.0,12.0,-100.00,West,278,0.0,1.0,90,0.00,,,-99.99,,2013-02-04 04:41:00,
2013-02-03 22:11:00,12.0,9.0,-100.00,SSW,202,2.0,3.0,87,0.00,,,-99.99,,2013-02-04 05:11:00,
2013-02-03 22:22:00,13.0,10.0,-100.00,SSW,196,3.0,4.0,88,0.00,,,-99.99,,2013-02-04 05:22:00,
2013-02-03 22:33:00,13.0,10.0,-100.00,SSW,196,3.0,4.0,88,0.00,,,-99.99,,2013-02-04 05:33:00,
2013-02-03 22:42:00,13.0,10.0,-100.00,SE,126,3.0,4.0,88,0.00,,,-99.99,,2013-02-04 05:42:00,
2013-02-03 22:52:00,12.0,9.0,-100.00,SSW,203,2.0,4.0,87,0.00,,,-99.99,,2013-02-04 05:52:00,
2013-02-03 23:01:00,12.0,9.0,-100.00,SSW,203,2.0,4.0,87,0.00,,,-99.99,,2013-02-04 06:01:00,
2013-02-03 23:52:00,11.0,8.0,-100.00,SE,143,3.0,4.0,87,0.00,,,-99.99,,2013-02-04 06:52:00,